Time;durP1;ratioP1;P1;durP2;ratioP2;P2;SDS_P1;SDS_P2;PMS_P1;PMS_P2;Temp;Humidity;BMP_temperature;BMP_pressure;BME280_temperature;BME280_humidity;BME280_pressure;Samples;Min_cycle;Max_cycle;Signal;HPM_P1;HPM_P2
2024/03/06 00:02:22;;;;;;;16.73;11.85;;;6.90;99.90;;;;;;5055001;28;20457;-68
2024/03/06 00:04:49;;;;;;;15.60;12.30;;;6.90;99.90;;;;;;5055211;28;20060;-68
2024/03/06 00:07:16;;;;;;;13.57;11.65;;;7.00;99.90;;;;;;5054701;28;20500;-68
2024/03/06 00:09:43;;;;;;;15.48;11.95;;;7.00;99.90;;;;;;5055019;28;20033;-68
2024/03/06 00:12:10;;;;;;;13.43;11.52;;;6.90;99.90;;;;;;5055072;28;20170;-68
2024/03/06 00:14:36;;;;;;;14.13;11.60;;;6.90;99.90;;;;;;5053338;28;20123;-67
2024/03/06 00:17:06;;;;;;;14.48;11.00;;;6.90;99.90;;;;;;5054849;28;20462;-68
2024/03/06 00:19:34;;;;;;;15.40;12.23;;;6.90;99.90;;;;;;5053663;28;20041;-68
2024/03/06 00:22:02;;;;;;;14.10;12.10;;;6.90;99.90;;;;;;5054612;28;20124;-68
2024/03/06 00:24:29;;;;;;;14.95;12.48;;;6.90;99.90;;;;;;5054804;28;20045;-68
2024/03/06 00:26:56;;;;;;;15.13;12.02;;;6.90;99.90;;;;;;5054743;28;20049;-67
2024/03/06 00:29:23;;;;;;;14.32;12.77;;;6.90;99.90;;;;;;5053691;28;20072;-67
2024/03/06 00:31:50;;;;;;;18.25;12.48;;;6.90;99.90;;;;;;5052865;28;20095;-68
2024/03/06 00:34:17;;;;;;;16.33;13.68;;;6.90;99.90;;;;;;5054122;28;20045;-64
2024/03/06 00:36:44;;;;;;;17.40;14.60;;;6.90;99.90;;;;;;5054247;28;20045;-64
2024/03/06 00:39:11;;;;;;;19.38;15.20;;;6.90;99.90;;;;;;5054723;28;20045;-64
2024/03/06 00:41:38;;;;;;;15.55;12.65;;;7.00;99.90;;;;;;5054134;28;20116;-65
2024/03/06 00:44:05;;;;;;;15.73;13.05;;;6.90;99.90;;;;;;5054160;28;20115;-64
2024/03/06 00:46:32;;;;;;;18.42;13.05;;;7.00;99.90;;;;;;5052825;28;20051;-64
2024/03/06 00:48:59;;;;;;;18.13;13.38;;;6.90;99.90;;;;;;5054375;28;20440;-64
2024/03/06 00:51:26;;;;;;;16.20;13.68;;;6.90;99.90;;;;;;5053982;28;20037;-64
2024/03/06 00:54:07;;;;;;;17.40;13.93;;;6.80;99.90;;;;;;5054481;28;20041;-64
2024/03/06 00:56:34;;;;;;;19.85;14.23;;;6.70;99.90;;;;;;5053771;28;20037;-65
2024/03/06 00:59:01;;;;;;;18.48;13.80;;;6.70;99.90;;;;;;5054478;28;20119;-64
2024/03/06 01:01:29;;;;;;;19.40;14.07;;;6.60;99.90;;;;;;5054130;28;20068;-64
2024/03/06 01:03:56;;;;;;;20.23;14.85;;;6.60;99.90;;;;;;5052916;28;20056;-64
2024/03/06 01:06:22;;;;;;;17.33;14.68;;;6.50;99.90;;;;;;5050786;28;20045;-64
2024/03/06 01:08:49;;;;;;;18.13;14.70;;;6.50;99.90;;;;;;5053963;28;20493;-64
2024/03/06 01:11:16;;;;;;;17.83;14.20;;;6.40;99.90;;;;;;5054351;28;20045;-64
2024/03/06 01:13:43;;;;;;;18.58;14.32;;;6.40;99.90;;;;;;5053501;28;20041;-65
2024/03/06 01:16:09;;;;;;;17.45;14.75;;;6.40;99.90;;;;;;5053315;28;20099;-64
2024/03/06 01:18:36;;;;;;;17.15;14.85;;;6.40;99.90;;;;;;5054156;28;20115;-64
2024/03/06 01:21:03;;;;;;;18.50;14.80;;;6.40;99.90;;;;;;5054018;28;20047;-64
2024/03/06 01:23:30;;;;;;;18.48;15.23;;;6.40;99.90;;;;;;5054038;28;20037;-64
2024/03/06 01:25:56;;;;;;;19.83;15.68;;;6.40;99.90;;;;;;5053215;28;20075;-64
2024/03/06 01:28:23;;;;;;;18.25;14.40;;;6.40;99.90;;;;;;5053850;28;20462;-64
2024/03/06 01:30:50;;;;;;;19.98;15.27;;;6.30;99.90;;;;;;5053458;28;20051;-64
2024/03/06 01:33:17;;;;;;;18.27;14.95;;;6.40;99.90;;;;;;5052743;28;20044;-64
2024/03/06 01:35:44;;;;;;;20.70;15.73;;;6.30;99.90;;;;;;5051957;28;20110;-64
2024/03/06 01:38:11;;;;;;;18.83;15.35;;;6.30;99.90;;;;;;5052951;28;20045;-64
2024/03/06 01:40:38;;;;;;;20.33;15.68;;;6.20;99.90;;;;;;5052175;28;20041;-64
2024/03/06 01:43:05;;;;;;;20.48;16.27;;;6.20;99.90;;;;;;5053269;28;20051;-67
2024/03/06 01:45:32;;;;;;;18.15;14.48;;;6.10;99.90;;;;;;5053240;28;20045;-67
2024/03/06 01:47:59;;;;;;;16.73;13.57;;;6.10;99.90;;;;;;5051836;28;20512;-67
2024/03/06 01:50:26;;;;;;;20.92;14.77;;;6.00;99.90;;;;;;5051817;28;20497;-68
2024/03/06 01:52:53;;;;;;;18.55;14.07;;;6.00;99.90;;;;;;5052084;28;20148;-67
2024/03/06 01:55:20;;;;;;;18.70;14.15;;;5.90;99.90;;;;;;5052116;28;20397;-67
2024/03/06 01:57:48;;;;;;;16.83;14.10;;;5.90;99.90;;;;;;5053368;28;20029;-68
2024/03/06 02:00:16;;;;;;;17.20;14.43;;;5.80;99.90;;;;;;5053166;28;20045;-65
2024/03/06 02:02:44;;;;;;;16.05;13.77;;;5.80;99.90;;;;;;5053564;28;20120;-68
2024/03/06 02:05:11;;;;;;;16.27;13.15;;;5.80;99.90;;;;;;5052112;28;20390;-68
2024/03/06 02:07:39;;;;;;;20.05;13.32;;;5.80;99.90;;;;;;5053547;28;20080;-68
2024/03/06 02:10:06;;;;;;;19.63;13.85;;;5.70;99.90;;;;;;5053313;28;20048;-68
2024/03/06 02:12:34;;;;;;;17.00;14.20;;;5.70;99.90;;;;;;5052300;28;20490;-68
2024/03/06 02:15:02;;;;;;;16.88;13.55;;;5.60;99.90;;;;;;5051635;28;20102;-64
2024/03/06 02:17:29;;;;;;;19.05;14.27;;;5.60;99.90;;;;;;5052068;28;20447;-64
2024/03/06 02:19:58;;;;;;;16.38;14.07;;;5.50;99.90;;;;;;5053332;28;20086;-64
2024/03/06 02:22:25;;;;;;;19.45;15.35;;;5.50;99.90;;;;;;5053032;28;20099;-64
2024/03/06 02:24:51;;;;;;;17.95;14.70;;;5.40;99.90;;;;;;5053130;28;20470;-64
2024/03/06 02:27:18;;;;;;;20.80;14.85;;;5.40;99.90;;;;;;5053008;28;20072;-64
2024/03/06 02:29:45;;;;;;;20.10;14.85;;;5.40;99.90;;;;;;5053317;28;20041;-64
2024/03/06 02:32:12;;;;;;;20.40;14.85;;;5.30;99.90;;;;;;5053372;28;20402;-64
2024/03/06 02:34:40;;;;;;;18.02;15.02;;;5.30;99.90;;;;;;5052726;28;20462;-64
2024/03/06 02:37:07;;;;;;;18.10;14.95;;;5.30;99.90;;;;;;5052727;28;20041;-64
2024/03/06 02:39:34;;;;;;;23.27;16.70;;;5.30;99.90;;;;;;5051532;28;20102;-64
2024/03/06 02:42:00;;;;;;;20.23;17.20;;;5.20;99.90;;;;;;5051731;28;20047;-64
2024/03/06 02:44:27;;;;;;;21.30;17.20;;;5.20;99.90;;;;;;5053438;28;20041;-64
2024/03/06 02:46:54;;;;;;;24.02;18.88;;;5.10;99.90;;;;;;5054965;28;20041;-68
2024/03/06 02:49:21;;;;;;;24.45;19.00;;;5.10;99.90;;;;;;5056720;28;20063;-68
2024/03/06 02:51:48;;;;;;;22.90;18.15;;;5.10;99.90;;;;;;5056537;28;20048;-68
2024/03/06 02:54:15;;;;;;;20.75;17.00;;;5.10;99.90;;;;;;5056309;28;20045;-64
2024/03/06 02:56:42;;;;;;;24.85;17.60;;;5.10;99.90;;;;;;5056615;28;20077;-66
2024/03/06 02:59:08;;;;;;;23.70;16.95;;;5.00;99.90;;;;;;5056635;28;20041;-66
2024/03/06 03:01:35;;;;;;;23.42;16.80;;;5.00;99.90;;;;;;5055993;28;20055;-66
2024/03/06 03:04:02;;;;;;;21.45;17.25;;;5.00;99.90;;;;;;5056084;28;20041;-67
2024/03/06 03:06:29;;;;;;;21.60;16.80;;;5.00;99.90;;;;;;5056212;28;20044;-67
2024/03/06 03:08:56;;;;;;;20.85;16.50;;;5.10;99.90;;;;;;5055910;28;20036;-66
2024/03/06 03:11:23;;;;;;;22.67;18.20;;;5.10;99.90;;;;;;5056261;28;20486;-66
2024/03/06 03:13:49;;;;;;;24.25;18.05;;;5.10;99.90;;;;;;5054598;28;20032;-66
2024/03/06 03:16:17;;;;;;;23.75;18.15;;;5.10;99.90;;;;;;5055607;28;20083;-66
2024/03/06 03:18:44;;;;;;;21.45;18.00;;;5.20;99.90;;;;;;5056284;28;20043;-66
2024/03/06 03:21:12;;;;;;;23.02;17.77;;;5.10;99.90;;;;;;5054834;28;20052;-66
2024/03/06 03:23:39;;;;;;;23.42;18.08;;;5.20;99.90;;;;;;5054871;28;20467;-66
2024/03/06 03:26:06;;;;;;;23.67;18.27;;;5.10;99.90;;;;;;5055732;28;20549;-67
2024/03/06 03:28:33;;;;;;;23.90;18.38;;;5.20;99.90;;;;;;5056032;28;20061;-66
2024/03/06 03:31:00;;;;;;;22.67;17.25;;;5.10;99.90;;;;;;5055379;28;20041;-66
2024/03/06 03:33:26;;;;;;;22.65;18.25;;;5.20;99.90;;;;;;5055808;28;20111;-66
2024/03/06 03:35:53;;;;;;;25.92;19.25;;;5.20;99.90;;;;;;5054510;28;20098;-66
2024/03/06 03:38:20;;;;;;;23.10;18.33;;;5.20;99.90;;;;;;5055982;28;20032;-67
2024/03/06 03:40:47;;;;;;;26.52;18.75;;;5.20;99.90;;;;;;5055295;28;20041;-66
2024/03/06 03:43:14;;;;;;;24.02;18.38;;;5.20;99.90;;;;;;5055413;28;20045;-66
2024/03/06 03:45:40;;;;;;;24.30;18.75;;;5.20;99.90;;;;;;5055216;28;20132;-67
2024/03/06 03:48:07;;;;;;;29.38;18.65;;;5.20;99.90;;;;;;5054510;28;20037;-67
2024/03/06 03:50:34;;;;;;;24.30;18.50;;;5.30;99.90;;;;;;5055463;28;20481;-67
2024/03/06 03:53:01;;;;;;;21.38;17.75;;;5.30;99.90;;;;;;5055186;28;20102;-67
2024/03/06 03:55:28;;;;;;;21.17;17.65;;;5.30;99.90;;;;;;5055541;28;20446;-66
2024/03/06 03:57:56;;;;;;;23.55;18.25;;;5.30;99.90;;;;;;5054687;28;20049;-67
2024/03/06 04:00:23;;;;;;;23.13;18.60;;;5.30;99.90;;;;;;5055220;28;20033;-68
2024/03/06 04:02:50;;;;;;;24.95;18.27;;;5.40;99.90;;;;;;5055059;28;20065;-64
2024/03/06 04:05:17;;;;;;;22.48;17.52;;;5.40;99.90;;;;;;5055265;28;20056;-64
2024/03/06 04:07:44;;;;;;;24.02;18.65;;;5.40;99.90;;;;;;5054976;28;20102;-64
2024/03/06 04:10:11;;;;;;;24.63;18.45;;;5.40;99.90;;;;;;5055345;28;20049;-64
2024/03/06 04:12:39;;;;;;;24.10;19.35;;;5.50;99.90;;;;;;5054852;28;20366;-65
2024/03/06 04:15:06;;;;;;;21.25;17.98;;;5.50;99.90;;;;;;5054504;28;20134;-64
2024/03/06 04:17:33;;;;;;;26.02;19.13;;;5.50;99.90;;;;;;5054634;28;20454;-64
2024/03/06 04:20:00;;;;;;;25.20;18.83;;;5.50;99.90;;;;;;5054992;28;20463;-64
2024/03/06 04:22:27;;;;;;;23.08;18.58;;;5.50;99.90;;;;;;5055076;28;20043;-64
2024/03/06 04:24:55;;;;;;;25.73;19.20;;;5.50;99.90;;;;;;5055502;28;20037;-64
2024/03/06 04:27:22;;;;;;;23.30;18.55;;;5.50;99.90;;;;;;5053594;28;20049;-64
2024/03/06 04:29:49;;;;;;;24.15;19.08;;;5.50;99.90;;;;;;5054677;28;20391;-64
2024/03/06 04:32:15;;;;;;;27.60;20.13;;;5.60;99.90;;;;;;5054847;28;20048;-64
2024/03/06 04:34:42;;;;;;;28.95;20.55;;;5.50;99.90;;;;;;5036455;28;20052;-64
2024/03/06 04:37:09;;;;;;;29.17;19.13;;;5.60;99.90;;;;;;5054288;28;20474;-64
2024/03/06 04:39:36;;;;;;;24.75;20.15;;;5.60;99.90;;;;;;5054699;28;20049;-64
2024/03/06 04:42:03;;;;;;;28.83;20.70;;;5.60;99.90;;;;;;5054207;28;20371;-64
2024/03/06 04:44:29;;;;;;;26.25;20.55;;;5.60;99.90;;;;;;5054629;28;20124;-64
2024/03/06 04:46:56;;;;;;;28.45;20.33;;;5.70;99.90;;;;;;5053783;28;20041;-64
2024/03/06 04:49:23;;;;;;;24.65;19.65;;;5.70;99.90;;;;;;5053851;28;20045;-64
2024/03/06 04:51:50;;;;;;;26.17;20.98;;;5.70;99.90;;;;;;5053482;28;20033;-64
2024/03/06 04:54:16;;;;;;;28.35;20.75;;;5.70;99.90;;;;;;5054468;28;20041;-64
2024/03/06 04:56:43;;;;;;;28.70;20.08;;;5.70;99.90;;;;;;5053920;28;20040;-64
2024/03/06 04:59:10;;;;;;;26.20;20.48;;;5.70;99.90;;;;;;5054453;28;20098;-64
2024/03/06 05:01:37;;;;;;;26.90;21.27;;;5.80;99.90;;;;;;5053709;28;20479;-64
2024/03/06 05:04:04;;;;;;;29.23;21.70;;;5.80;99.90;;;;;;5053165;28;20052;-64
2024/03/06 05:06:48;;;;;;;27.98;20.70;;;5.80;99.90;;;;;;5053673;28;20371;-64
2024/03/06 05:09:32;;;;;;;24.10;19.55;;;5.90;99.90;;;;;;5053140;28;20459;-64
2024/03/06 05:12:16;;;;;;;28.92;20.08;;;5.90;99.90;;;;;;5053725;28;20493;-64
2024/03/06 05:15:00;;;;;;;29.08;21.00;;;5.90;99.90;;;;;;5053353;28;20052;-64
2024/03/06 05:17:44;;;;;;;27.42;20.17;;;5.90;99.90;;;;;;5052529;28;20033;-64
2024/03/06 05:20:30;;;;;;;26.20;19.60;;;5.90;99.90;;;;;;5054241;28;20131;-64
2024/03/06 05:23:17;;;;;;;;;;;5.90;99.90;;;;;;5054134;28;20052;-64
2024/03/06 05:26:02;;;;;;;25.85;19.98;;;6.00;99.90;;;;;;5053712;28;19909;-64
2024/03/06 05:28:46;;;;;;;32.45;20.92;;;6.00;99.90;;;;;;5053850;28;20056;-64
2024/03/06 05:31:30;;;;;;;29.00;20.77;;;5.90;99.90;;;;;;5053928;28;20108;-64
2024/03/06 05:34:14;;;;;;;26.17;20.13;;;5.90;99.90;;;;;;5053622;28;20036;-64
2024/03/06 05:36:58;;;;;;;28.10;20.45;;;5.90;99.90;;;;;;5053756;28;20028;-64
2024/03/06 05:39:42;;;;;;;29.52;21.63;;;5.90;99.90;;;;;;5053534;28;20040;-64
2024/03/06 05:42:26;;;;;;;29.77;21.75;;;5.90;99.90;;;;;;5053460;28;20021;-64
2024/03/06 05:45:10;;;;;;;31.25;21.63;;;5.90;99.90;;;;;;5053225;28;20033;-64
2024/03/06 05:47:54;;;;;;;29.80;21.75;;;5.90;99.90;;;;;;5052305;28;20450;-64
2024/03/06 05:50:38;;;;;;;30.58;21.90;;;6.00;99.90;;;;;;5053755;28;20135;-64
2024/03/06 05:53:23;;;;;;;31.63;21.13;;;6.00;99.90;;;;;;5053325;28;20033;-64
2024/03/06 05:56:07;;;;;;;29.40;21.48;;;5.90;99.90;;;;;;5053609;28;20029;-64
2024/03/06 05:58:51;;;;;;;29.90;22.08;;;6.00;99.90;;;;;;5052406;28;20055;-64
2024/03/06 06:01:21;;;;;;;32.47;22.30;;;6.00;99.90;;;;;;5053200;28;20041;-64
2024/03/06 06:03:48;;;;;;;29.50;22.15;;;6.00;99.90;;;;;;5053165;28;20072;-64
2024/03/06 06:06:15;;;;;;;33.17;22.65;;;5.90;99.90;;;;;;5053323;28;20045;-67
2024/03/06 06:08:43;;;;;;;29.55;21.45;;;6.00;99.90;;;;;;5053629;28;20084;-66
2024/03/06 06:11:10;;;;;;;31.25;22.23;;;6.00;99.90;;;;;;5053596;28;20470;-66
2024/03/06 06:13:38;;;;;;;30.15;23.05;;;6.00;99.90;;;;;;5053209;28;20041;-66
2024/03/06 06:16:05;;;;;;;28.95;21.98;;;6.00;99.90;;;;;;5053032;28;20041;-66
2024/03/06 06:18:31;;;;;;;30.88;23.10;;;6.00;99.90;;;;;;5053353;28;20457;-68
2024/03/06 06:20:58;;;;;;;28.50;21.58;;;6.10;99.90;;;;;;5055921;28;20401;-70
2024/03/06 06:23:25;;;;;;;32.35;22.92;;;6.10;99.90;;;;;;5055654;28;20045;-68
2024/03/06 06:25:52;;;;;;;33.38;22.60;;;6.10;99.90;;;;;;5057001;28;20041;-68
2024/03/06 06:28:19;;;;;;;33.33;24.42;;;6.10;99.90;;;;;;5056643;28;20111;-64
2024/03/06 06:30:46;;;;;;;31.60;23.52;;;6.10;99.90;;;;;;5057023;28;20049;-64
2024/03/06 06:33:13;;;;;;;34.03;24.38;;;6.10;99.90;;;;;;5055219;28;20048;-64
2024/03/06 06:35:40;;;;;;;33.20;23.73;;;6.10;99.90;;;;;;5054964;28;20434;-64
2024/03/06 06:38:06;;;;;;;35.92;25.25;;;6.10;99.90;;;;;;5056681;28;20041;-64
2024/03/06 06:40:33;;;;;;;35.03;24.55;;;6.10;99.90;;;;;;5056728;28;20474;-64
2024/03/06 06:43:00;;;;;;;33.25;24.58;;;6.20;99.90;;;;;;5055488;28;20036;-64
2024/03/06 06:45:27;;;;;;;38.92;27.35;;;6.20;99.90;;;;;;5056295;28;20041;-64
2024/03/06 06:47:54;;;;;;;43.17;28.67;;;6.20;99.90;;;;;;5055489;28;20037;-64
2024/03/06 06:50:25;;;;;;;38.75;28.23;;;6.20;99.90;;;;;;5056160;28;20490;-64
2024/03/06 06:52:53;;;;;;;36.45;25.88;;;6.20;99.90;;;;;;5056508;28;20041;-64
2024/03/06 06:55:22;;;;;;;34.72;26.60;;;6.20;99.90;;;;;;5056227;28;20111;-64
2024/03/06 06:57:49;;;;;;;42.08;28.85;;;6.20;99.90;;;;;;5056338;28;20045;-64
2024/03/06 07:00:18;;;;;;;52.97;32.60;;;6.20;99.90;;;;;;5055985;28;20453;-66
2024/03/06 07:02:45;;;;;;;48.83;32.65;;;6.30;99.90;;;;;;5056302;28;20116;-67
2024/03/06 07:05:12;;;;;;;40.83;28.58;;;6.30;99.90;;;;;;5055999;28;20041;-66
2024/03/06 07:07:39;;;;;;;40.00;28.08;;;6.30;99.90;;;;;;5056903;28;20512;-66
2024/03/06 07:10:05;;;;;;;38.92;27.75;;;6.30;99.90;;;;;;5054814;28;20072;-65
2024/03/06 07:12:32;;;;;;;39.13;27.13;;;6.30;99.90;;;;;;5055979;28;20064;-65
2024/03/06 07:14:59;;;;;;;47.90;31.15;;;6.30;99.90;;;;;;5055742;28;20098;-66
2024/03/06 07:17:26;;;;;;;43.25;30.25;;;6.30;99.90;;;;;;5055772;28;20041;-65
2024/03/06 07:19:53;;;;;;;47.33;33.60;;;6.30;99.90;;;;;;5055885;28;20473;-68
2024/03/06 07:22:20;;;;;;;47.75;34.13;;;6.30;99.90;;;;;;5056116;28;20127;-69
2024/03/06 07:24:47;;;;;;;51.67;32.90;;;6.40;99.90;;;;;;5055544;28;20079;-69
2024/03/06 07:27:13;;;;;;;51.53;34.67;;;6.40;99.90;;;;;;5054538;28;20056;-69
2024/03/06 07:29:40;;;;;;;51.20;34.08;;;6.40;99.90;;;;;;5055763;28;20037;-69
2024/03/06 07:32:07;;;;;;;51.50;36.35;;;6.40;99.90;;;;;;5055298;28;20053;-68
2024/03/06 07:34:34;;;;;;;51.85;35.72;;;6.40;99.90;;;;;;5055057;28;20043;-68
2024/03/06 07:37:01;;;;;;;51.65;34.47;;;6.50;99.90;;;;;;5054430;28;20441;-67
2024/03/06 07:39:32;;;;;;;51.03;34.35;;;6.50;99.90;;;;;;5056099;28;20428;-68
2024/03/06 07:41:59;;;;;;;51.25;34.45;;;6.40;99.90;;;;;;5055591;28;20123;-68
2024/03/06 07:44:26;;;;;;;53.38;34.38;;;6.50;99.90;;;;;;5055610;28;20037;-69
2024/03/06 07:46:54;;;;;;;54.40;35.42;;;6.50;99.90;;;;;;5056136;28;20083;-69
2024/03/06 07:49:21;;;;;;;52.22;35.72;;;6.50;99.90;;;;;;5055618;28;20083;-68
2024/03/06 07:51:48;;;;;;;53.38;36.28;;;6.60;99.90;;;;;;5054965;28;20052;-69
2024/03/06 07:54:15;;;;;;;56.83;36.80;;;6.60;99.90;;;;;;5029205;28;20061;-63
2024/03/06 07:56:42;;;;;;;52.72;36.42;;;6.70;99.90;;;;;;5034414;28;20434;-63
2024/03/06 07:59:11;;;;;;;53.90;36.55;;;6.70;99.90;;;;;;5046056;28;20048;-63
2024/03/06 08:01:37;;;;;;;51.85;35.78;;;6.80;99.90;;;;;;5053291;28;20065;-63
2024/03/06 08:04:04;;;;;;;55.08;37.88;;;6.80;99.90;;;;;;5054406;28;20370;-63
2024/03/06 08:06:32;;;;;;;57.65;38.83;;;6.80;99.90;;;;;;5054487;28;20437;-63
2024/03/06 08:08:59;;;;;;;59.22;38.42;;;6.90;99.90;;;;;;5052802;28;20045;-63
2024/03/06 08:11:28;;;;;;;60.67;39.22;;;6.90;99.90;;;;;;5054368;28;20355;-63
2024/03/06 08:13:55;;;;;;;60.75;39.67;;;7.00;99.90;;;;;;5054222;28;20135;-65
2024/03/06 08:16:22;;;;;;;58.50;38.45;;;7.00;99.90;;;;;;5053898;28;20486;-65
2024/03/06 08:18:49;;;;;;;58.78;37.53;;;7.10;99.90;;;;;;5054037;28;20397;-65
2024/03/06 08:21:15;;;;;;;57.08;37.80;;;7.10;99.90;;;;;;5053951;28;20052;-64
2024/03/06 08:23:43;;;;;;;61.40;37.30;;;7.10;99.90;;;;;;5054066;28;20043;-65
2024/03/06 08:26:10;;;;;;;55.53;37.53;;;7.10;99.90;;;;;;5053762;28;20033;-65
2024/03/06 08:28:37;;;;;;;56.38;37.30;;;7.10;99.90;;;;;;5054094;28;20041;-65
2024/03/06 08:31:03;;;;;;;60.72;38.83;;;7.10;99.90;;;;;;5053861;28;20466;-66
2024/03/06 08:33:30;;;;;;;64.00;39.75;;;7.20;99.90;;;;;;5054139;28;20123;-66
2024/03/06 08:35:58;;;;;;;63.95;40.97;;;7.20;99.90;;;;;;5053597;28;20399;-66
2024/03/06 08:38:25;;;;;;;67.35;41.65;;;7.30;99.90;;;;;;5052445;28;20506;-66
2024/03/06 08:40:52;;;;;;;65.15;41.47;;;7.40;99.90;;;;;;5053547;28;20045;-66
2024/03/06 08:43:19;;;;;;;58.97;39.70;;;7.40;99.90;;;;;;5053589;28;20486;-66
2024/03/06 08:45:46;;;;;;;62.65;39.80;;;7.40;99.90;;;;;;5053249;28;20497;-66
2024/03/06 08:48:13;;;;;;;63.85;41.03;;;7.40;99.90;;;;;;5053657;28;20482;-67
2024/03/06 08:50:40;;;;;;;63.58;40.08;;;7.50;99.90;;;;;;5053539;28;20116;-67
2024/03/06 08:53:09;;;;;;;60.65;38.67;;;7.50;99.90;;;;;;5053492;28;20068;-67
2024/03/06 08:55:36;;;;;;;62.80;38.10;;;7.50;99.90;;;;;;5052195;28;20098;-67
2024/03/06 08:58:02;;;;;;;64.68;39.50;;;7.40;99.90;;;;;;5034508;28;20099;-66
2024/03/06 09:00:29;;;;;;;66.35;39.30;;;7.40;99.90;;;;;;5033477;28;20041;-67
2024/03/06 09:02:56;;;;;;;69.28;40.03;;;7.40;99.90;;;;;;5033872;28;20508;-67
2024/03/06 09:05:23;;;;;;;64.85;39.58;;;7.50;99.90;;;;;;5033276;28;20426;-66
2024/03/06 09:07:50;;;;;;;66.70;38.90;;;7.50;99.90;;;;;;5032292;28;20080;-66
2024/03/06 09:10:18;;;;;;;62.45;38.80;;;7.60;99.90;;;;;;5033471;28;20096;-65
2024/03/06 09:12:45;;;;;;;69.97;38.88;;;7.70;99.90;;;;;;5049190;28;20052;-66
2024/03/06 09:15:13;;;;;;;59.97;36.70;;;7.80;99.90;;;;;;5052830;28;20102;-66
2024/03/06 09:17:40;;;;;;;53.13;34.75;;;7.90;99.90;;;;;;5053267;28;20459;-66
2024/03/06 09:20:10;;;;;;;49.63;33.47;;;8.10;99.90;;;;;;5053577;28;20132;-65
2024/03/06 09:22:38;;;;;;;48.88;33.25;;;8.30;99.90;;;;;;5038285;28;20041;-66
2024/03/06 09:25:05;;;;;;;49.08;32.17;;;8.40;99.90;;;;;;5033043;28;20060;-67
2024/03/06 09:27:33;;;;;;;54.45;34.05;;;8.50;99.90;;;;;;5033306;28;20044;-67
2024/03/06 09:30:00;;;;;;;57.50;34.70;;;8.60;99.90;;;;;;5033213;28;20053;-65
2024/03/06 09:32:26;;;;;;;53.38;35.70;;;8.70;99.90;;;;;;5031976;28;20136;-65
2024/03/06 09:34:53;;;;;;;50.65;32.67;;;8.70;99.90;;;;;;5032715;28;20045;-65
2024/03/06 09:37:20;;;;;;;51.80;32.95;;;8.70;99.90;;;;;;5033009;28;20072;-65
2024/03/06 09:39:47;;;;;;;44.50;29.50;;;8.70;99.90;;;;;;5032812;28;20846;-65
2024/03/06 09:42:14;;;;;;;48.80;31.15;;;8.70;99.90;;;;;;5032985;28;20099;-65
2024/03/06 09:44:40;;;;;;;45.78;31.48;;;8.70;99.90;;;;;;5031560;28;20387;-65
2024/03/06 09:47:07;;;;;;;43.60;28.75;;;8.70;99.90;;;;;;5033275;28;20108;-66
2024/03/06 09:49:34;;;;;;;38.17;27.48;;;8.70;99.90;;;;;;5033303;28;20084;-66
2024/03/06 09:52:01;;;;;;;36.33;26.15;;;8.70;99.90;;;;;;5032314;28;20104;-66
2024/03/06 09:54:28;;;;;;;35.95;26.10;;;8.70;99.90;;;;;;5033968;28;20048;-66
2024/03/06 09:56:57;;;;;;;38.20;26.52;;;8.70;99.90;;;;;;5035975;28;20045;-65
2024/03/06 09:59:23;;;;;;;52.17;27.48;;;8.80;99.90;;;;;;5036303;28;20037;-64
2024/03/06 10:01:50;;;;;;;41.35;28.08;;;8.80;99.90;;;;;;5037461;28;20034;-65
2024/03/06 10:04:17;;;;;;;39.30;27.55;;;8.80;99.90;;;;;;5035213;28;20048;-65
2024/03/06 10:06:44;;;;;;;39.38;27.08;;;8.90;99.90;;;;;;5037188;28;20096;-65
2024/03/06 10:09:11;;;;;;;39.53;27.75;;;8.80;99.90;;;;;;5037173;28;20037;-65
2024/03/06 10:11:38;;;;;;;40.42;25.55;;;8.90;99.90;;;;;;5037574;28;20470;-65
2024/03/06 10:14:04;;;;;;;39.10;27.00;;;8.80;99.90;;;;;;5037523;28;20441;-66
2024/03/06 10:16:31;;;;;;;39.83;26.25;;;8.80;99.90;;;;;;5036943;28;20136;-66
2024/03/06 10:18:58;;;;;;;39.58;27.15;;;8.70;99.90;;;;;;5036790;28;20425;-66
2024/03/06 10:21:25;;;;;;;42.63;28.58;;;8.60;99.90;;;;;;5037474;28;20069;-66
2024/03/06 10:23:51;;;;;;;45.63;29.10;;;8.50;99.90;;;;;;5036917;28;20116;-66
2024/03/06 10:26:20;;;;;;;47.80;29.15;;;8.40;99.90;;;;;;5036849;28;20044;-66
2024/03/06 10:28:47;;;;;;;44.78;28.92;;;8.30;99.90;;;;;;5037121;28;20045;-66
2024/03/06 10:31:13;;;;;;;42.92;26.33;;;8.30;99.90;;;;;;5035718;28;20052;-66
2024/03/06 10:33:41;;;;;;;45.40;28.17;;;8.40;99.90;;;;;;5037218;28;20052;-67
2024/03/06 10:36:08;;;;;;;41.95;27.55;;;8.40;99.90;;;;;;5036837;28;20475;-66
2024/03/06 10:38:35;;;;;;;39.10;25.13;;;8.40;99.90;;;;;;5036959;28;20065;-66
2024/03/06 10:41:02;;;;;;;45.58;26.67;;;8.40;99.90;;;;;;5036996;28;20163;-66
2024/03/06 10:43:29;;;;;;;39.67;26.02;;;8.50;99.90;;;;;;5036601;28;20104;-66
2024/03/06 10:45:56;;;;;;;41.33;26.55;;;8.60;99.90;;;;;;5036647;28;20113;-65
2024/03/06 10:48:23;;;;;;;40.75;25.33;;;8.70;99.90;;;;;;5036961;28;20084;-66
2024/03/06 10:50:49;;;;;;;37.05;25.45;;;8.70;99.90;;;;;;5036641;28;20046;-67
2024/03/06 10:53:16;;;;;;;37.10;24.70;;;8.80;99.90;;;;;;5036450;28;20483;-66
2024/03/06 10:55:49;;;;;;;36.28;23.95;;;8.70;99.90;;;;;;5036473;28;20128;-66
2024/03/06 10:58:15;;;;;;;39.53;24.05;;;8.60;99.90;;;;;;5036610;28;20493;-66
2024/03/06 11:00:42;;;;;;;34.20;24.17;;;8.50;99.90;;;;;;5035379;28;20475;-64
2024/03/06 11:03:11;;;;;;;36.92;24.35;;;8.50;99.90;;;;;;5036346;28;20045;-65
2024/03/06 11:05:39;;;;;;;35.58;23.02;;;8.50;99.90;;;;;;5035538;28;20091;-65
2024/03/06 11:08:07;;;;;;;35.53;24.17;;;8.50;99.90;;;;;;5035583;28;20040;-65
2024/03/06 11:10:34;;;;;;;38.03;25.75;;;8.40;99.90;;;;;;5035939;28;20037;-65
2024/03/06 11:13:01;;;;;;;34.50;23.70;;;8.50;99.90;;;;;;5036137;28;20124;-65
2024/03/06 11:15:28;;;;;;;31.85;22.70;;;8.50;99.90;;;;;;5035805;28;20143;-65
2024/03/06 11:17:55;;;;;;;33.65;23.10;;;8.60;99.90;;;;;;5034699;28;20046;-65
2024/03/06 11:20:24;;;;;;;32.50;22.17;;;8.70;99.90;;;;;;5035998;28;20479;-65
2024/03/06 11:22:50;;;;;;;31.58;21.30;;;8.80;99.90;;;;;;5036093;28;20048;-65
2024/03/06 11:25:17;;;;;;;31.58;21.67;;;8.90;99.90;;;;;;5035657;28;20037;-65
2024/03/06 11:27:44;;;;;;;31.33;21.52;;;8.90;99.90;;;;;;5036149;28;20099;-66
2024/03/06 11:30:13;;;;;;;27.80;19.67;;;9.00;99.90;;;;;;5036264;28;20045;-65
2024/03/06 11:32:40;;;;;;;30.73;20.30;;;9.10;99.90;;;;;;5034285;28;20056;-65
2024/03/06 11:35:08;;;;;;;23.42;16.35;;;9.10;99.90;;;;;;5035507;28;20120;-65
2024/03/06 11:37:36;;;;;;;23.50;16.90;;;9.20;99.90;;;;;;5035572;28;20052;-65
2024/03/06 11:40:08;;;;;;;22.58;16.10;;;9.30;99.90;;;;;;5035692;28;20449;-65
2024/03/06 11:42:35;;;;;;;26.77;18.20;;;9.40;99.90;;;;;;5035549;28;20038;-65
2024/03/06 11:45:05;;;;;;;24.83;17.35;;;9.50;99.90;;;;;;5034052;28;20033;-65
2024/03/06 11:47:32;;;;;;;23.20;15.45;;;9.60;99.90;;;;;;5035681;28;20091;-65
2024/03/06 11:49:59;;;;;;;21.95;16.50;;;9.60;99.90;;;;;;5035460;28;20131;-65
2024/03/06 11:52:26;;;;;;;22.65;16.33;;;9.70;99.90;;;;;;5035933;28;20042;-65
2024/03/06 11:54:53;;;;;;;23.50;16.65;;;9.80;99.90;;;;;;5035662;28;20099;-65
2024/03/06 11:57:21;;;;;;;22.92;16.63;;;9.80;99.90;;;;;;5035510;28;20128;-65
2024/03/06 11:59:48;;;;;;;23.20;16.85;;;10.00;99.90;;;;;;5035057;28;20056;-65
2024/03/06 12:02:15;;;;;;;25.38;17.02;;;10.00;99.90;;;;;;5035155;28;20037;-65
2024/03/06 12:04:42;;;;;;;23.67;17.38;;;10.10;99.90;;;;;;5035174;28;20045;-64
2024/03/06 12:07:09;;;;;;;22.08;16.73;;;10.10;99.90;;;;;;5035171;28;20111;-64
2024/03/06 12:09:36;;;;;;;22.20;17.55;;;10.10;99.90;;;;;;5034778;28;20412;-64
2024/03/06 12:12:09;;;;;;;26.75;17.58;;;10.00;99.90;;;;;;5035227;28;20053;-64
2024/03/06 12:14:38;;;;;;;24.73;16.38;;;9.90;99.90;;;;;;5033384;28;20061;-64
2024/03/06 12:17:07;;;;;;;20.70;15.02;;;9.90;99.90;;;;;;5034752;28;20073;-64
2024/03/06 12:19:34;;;;;;;24.92;17.05;;;10.00;99.90;;;;;;5034649;28;20104;-64
2024/03/06 12:22:03;;;;;;;24.20;17.63;;;10.00;99.90;;;;;;5034767;28;20049;-64
2024/03/06 12:24:31;;;;;;;23.25;16.20;;;10.00;99.90;;;;;;5034455;28;20067;-64
2024/03/06 12:26:57;;;;;;;22.85;17.05;;;9.90;99.90;;;;;;5034407;28;20043;-64
2024/03/06 12:29:24;;;;;;;21.88;16.35;;;10.00;99.90;;;;;;5034497;28;20065;-64
2024/03/06 12:31:51;;;;;;;23.33;15.88;;;10.00;99.90;;;;;;5034426;28;20453;-64
2024/03/06 12:34:18;;;;;;;20.05;13.98;;;10.00;99.90;;;;;;5035035;28;20562;-65
2024/03/06 12:36:45;;;;;;;19.10;14.23;;;10.00;99.90;;;;;;5034372;28;20041;-66
2024/03/06 12:39:18;;;;;;;21.02;15.00;;;10.10;99.90;;;;;;5034076;28;20116;-65
2024/03/06 12:41:45;;;;;;;19.60;16.05;;;10.20;99.90;;;;;;5034809;28;20033;-65